createdAt,value
2018-12-18T00:00:28.889Z,102149.67
2018-12-18T00:02:56.919Z,102145.74
2018-12-18T00:05:30.440Z,102150.09
2018-12-18T00:07:58.594Z,102151.42
2018-12-18T00:10:30.769Z,102150.09
2018-12-18T00:12:58.397Z,102160.58
2018-12-18T00:15:26.607Z,102154.03
2018-12-18T00:17:55.077Z,102150.11
2018-12-18T00:20:23.203Z,102152.28
2018-12-18T00:22:50.915Z,102153.59
2018-12-18T00:25:18.800Z,102161.45
2018-12-18T00:27:47.135Z,102155.33
2018-12-18T00:30:14.886Z,102156.20
2018-12-18T00:32:42.793Z,102158.40
2018-12-18T00:35:11.029Z,102154.05
2018-12-18T00:37:39.317Z,102161.45
2018-12-18T00:40:07.890Z,102161.91
2018-12-18T00:42:35.659Z,102158.40
2018-12-18T00:45:04.095Z,102158.40
2018-12-18T00:47:31.772Z,102160.59
2018-12-18T00:49:59.581Z,102162.75
2018-12-18T00:52:27.361Z,102158.82
2018-12-18T00:54:55.141Z,102161.44
2018-12-18T00:57:22.994Z,102162.78
2018-12-18T00:59:51.538Z,102164.06
2018-12-18T01:02:19.206Z,102162.32
2018-12-18T01:04:46.903Z,102165.37
2018-12-18T01:07:14.903Z,102165.84
2018-12-18T01:09:42.634Z,102164.06
2018-12-18T01:12:10.476Z,102173.23
2018-12-18T01:14:38.260Z,102171.49
2018-12-18T01:17:05.928Z,102171.08
2018-12-18T01:19:33.630Z,102173.24
2018-12-18T01:22:01.240Z,102176.75
2018-12-18T01:24:28.835Z,102175.87
2018-12-18T01:26:56.452Z,102163.20
2018-12-18T01:29:24.033Z,102172.39
2018-12-18T01:31:51.709Z,102169.76
2018-12-18T01:34:19.220Z,102178.48
2018-12-18T01:36:46.815Z,102180.67
2018-12-18T01:39:14.486Z,102172.39
2018-12-18T01:41:42.153Z,102180.25
2018-12-18T01:44:09.720Z,102183.72
2018-12-18T01:46:37.299Z,102178.48
2018-12-18T01:49:04.874Z,102178.05
2018-12-18T01:51:32.615Z,102184.17
2018-12-18T01:54:06.781Z,102184.17
2018-12-18T01:56:34.356Z,102186.80
2018-12-18T01:59:01.951Z,102185.49
2018-12-18T02:01:29.535Z,102195.09
2018-12-18T02:03:57.123Z,102192.47
2018-12-18T02:06:24.749Z,102188.11
2018-12-18T02:08:52.344Z,102192.47
2018-12-18T02:11:19.938Z,102190.30
2018-12-18T02:13:47.572Z,102190.30
2018-12-18T02:16:15.148Z,102193.77
2018-12-18T02:18:42.756Z,102197.70
2018-12-18T02:21:10.346Z,102200.78
2018-12-18T02:23:38.065Z,102199.89
2018-12-18T02:26:05.637Z,102199.47
2018-12-18T02:28:33.323Z,102201.21
2018-12-18T02:31:00.988Z,102192.03
2018-12-18T02:33:28.551Z,102201.20
2018-12-18T02:35:56.125Z,102206.46
2018-12-18T02:38:23.788Z,102210.39
2018-12-18T02:40:51.407Z,102215.64
2018-12-18T02:43:18.985Z,102215.18
2018-12-18T02:45:46.594Z,102217.38
2018-12-18T02:48:14.196Z,102222.17
2018-12-18T02:50:41.766Z,102216.92
2018-12-18T02:53:09.354Z,102215.18
2018-12-18T02:55:36.911Z,102214.75
2018-12-18T02:58:04.530Z,102225.67
2018-12-18T03:00:32.097Z,102218.66
2018-12-18T03:02:59.744Z,102213.88
2018-12-18T03:05:27.297Z,102210.80
2018-12-18T03:07:54.825Z,102207.75
2018-12-18T03:10:22.491Z,102207.33
2018-12-18T03:12:50.028Z,102209.06
2018-12-18T03:15:17.617Z,102207.75
2018-12-18T03:17:45.220Z,102208.18
2018-12-18T03:20:12.768Z,102208.20
2018-12-18T03:22:40.361Z,102216.04
2018-12-18T03:25:07.976Z,102224.78
2018-12-18T03:27:35.516Z,102221.28
2018-12-18T03:30:03.266Z,102222.59
2018-12-18T03:32:35.487Z,102236.16
2018-12-18T03:35:03.232Z,102237.47
2018-12-18T03:37:30.861Z,102235.73
2018-12-18T03:39:58.492Z,102235.29
2018-12-18T03:42:26.126Z,102233.09
2018-12-18T03:44:53.727Z,102230.89
2018-12-18T03:47:21.333Z,102234.41
2018-12-18T03:49:49.062Z,102235.27
2018-12-18T03:52:16.608Z,102241.84
2018-12-18T03:54:44.206Z,102243.56
2018-12-18T03:57:11.799Z,102243.55
2018-12-18T03:59:39.432Z,102245.75
2018-12-18T04:02:07.080Z,102245.77
2018-12-18T04:04:35.865Z,102240.95
2018-12-18T04:07:03.623Z,102247.50
2018-12-18T04:09:31.317Z,102243.14
2018-12-18T04:12:04.425Z,102240.52
2018-12-18T04:14:32.069Z,102239.21
2018-12-18T04:16:59.656Z,102241.37
2018-12-18T04:19:27.238Z,102250.13
2018-12-18T04:21:54.877Z,102250.54
2018-12-18T04:24:22.656Z,102258.43
2018-12-18T04:26:50.203Z,102254.05
2018-12-18T04:29:17.933Z,102257.97
2018-12-18T04:31:45.496Z,102264.97
2018-12-18T04:34:13.064Z,102259.73
2018-12-18T04:36:40.696Z,102266.73
2018-12-18T04:39:08.323Z,102262.35
2018-12-18T04:41:35.860Z,102261.94
2018-12-18T04:44:03.483Z,102266.73
2018-12-18T04:46:31.079Z,102269.36
2018-12-18T04:48:58.666Z,102278.55
2018-12-18T04:51:26.255Z,102278.98
2018-12-18T04:53:53.881Z,102278.09
2018-12-18T04:56:21.474Z,102283.80
2018-12-18T04:58:49.063Z,102280.30
2018-12-18T05:01:16.637Z,102285.97
2018-12-18T05:03:44.221Z,102289.45
2018-12-18T05:06:11.817Z,102288.14
2018-12-18T05:08:39.438Z,102298.22
2018-12-18T05:11:07.029Z,102288.16
2018-12-18T05:13:34.748Z,102284.22
2018-12-18T05:16:02.327Z,102280.28
2018-12-18T05:18:29.916Z,102285.97
2018-12-18T05:20:57.507Z,102272.44
2018-12-18T05:23:25.085Z,102275.94
2018-12-18T05:25:52.659Z,102275.05
2018-12-18T05:28:20.256Z,102278.54
2018-12-18T05:30:47.889Z,102268.93
2018-12-18T05:33:15.513Z,102264.57
2018-12-18T05:35:43.089Z,102270.70
2018-12-18T05:38:10.690Z,102268.93
2018-12-18T05:40:38.528Z,102267.20
2018-12-18T05:43:06.148Z,102270.67
2018-12-18T05:45:33.809Z,102278.11
2018-12-18T05:48:02.789Z,102279.41
2018-12-18T05:50:30.417Z,102284.22
2018-12-18T05:52:57.964Z,102288.15
2018-12-18T05:55:25.567Z,102290.33
2018-12-18T05:57:53.186Z,102284.23
2018-12-18T06:00:20.793Z,102283.36
2018-12-18T06:02:48.451Z,102286.41
2018-12-18T06:05:16.006Z,102283.78
2018-12-18T06:07:43.608Z,102285.55
2018-12-18T06:10:11.198Z,102285.54
2018-12-18T06:12:38.748Z,102286.86
2018-12-18T06:15:06.428Z,102285.55
2018-12-18T06:17:33.976Z,102301.27
2018-12-18T06:20:01.605Z,102296.45
2018-12-18T06:22:29.331Z,102298.63
2018-12-18T06:24:56.878Z,102293.84
2018-12-18T06:27:24.517Z,102301.24
2018-12-18T06:32:51.778Z,102305.16
2018-12-18T06:35:20.348Z,102304.30
2018-12-18T06:37:48.181Z,102307.80
2018-12-18T06:40:16.751Z,102302.98
2018-12-18T06:42:45.199Z,102312.14
2018-12-18T06:45:14.283Z,102313.02
2018-12-18T06:47:42.642Z,102318.70
2018-12-18T06:50:11.459Z,102313.88
2018-12-18T06:52:39.832Z,102312.58
2018-12-18T06:55:11.045Z,102316.95
2018-12-18T06:57:40.155Z,102311.71
2018-12-18T07:00:11.112Z,102311.30
2018-12-18T07:02:39.726Z,102317.86
2018-12-18T07:05:08.076Z,102314.37
2018-12-18T07:07:36.390Z,102317.00
2018-12-18T07:10:05.517Z,102319.20
2018-12-18T07:12:33.844Z,102318.33
2018-12-18T07:15:02.878Z,102324.42
2018-12-18T07:17:31.165Z,102334.48
2018-12-18T07:19:59.546Z,102336.22
2018-12-18T07:22:27.108Z,102343.70
2018-12-18T07:24:54.703Z,102341.48
2018-12-18T07:27:22.294Z,102344.59
2018-12-18T07:29:49.821Z,102355.46
2018-12-18T07:32:17.407Z,102357.64
2018-12-18T07:34:45.022Z,102354.59
2018-12-18T07:37:12.636Z,102355.90
2018-12-18T07:39:40.208Z,102358.95
2018-12-18T07:42:07.895Z,102354.59
2018-12-18T07:44:35.513Z,102356.30
2018-12-18T07:47:03.105Z,102349.31
2018-12-18T07:49:30.681Z,102355.00
2018-12-18T07:51:58.302Z,102360.70
2018-12-18T07:54:25.916Z,102355.89
2018-12-18T07:56:53.531Z,102348.02
2018-12-18T07:59:21.095Z,102348.02
2018-12-18T08:01:48.700Z,102350.22
2018-12-18T08:04:16.261Z,102362.00
2018-12-18T08:06:43.987Z,102364.20
2018-12-18T08:09:11.595Z,102367.26
2018-12-18T08:11:39.229Z,102364.64
2018-12-18T08:14:06.870Z,102371.67
2018-12-18T08:16:34.499Z,102374.73
2018-12-18T08:19:02.167Z,102376.08
2018-12-18T08:21:29.728Z,102381.73
2018-12-18T08:23:57.313Z,102371.70
2018-12-18T08:26:24.880Z,102375.61
2018-12-18T08:28:52.480Z,102379.13
2018-12-18T08:31:20.837Z,102375.62
2018-12-18T08:33:49.178Z,102376.05
2018-12-18T08:36:17.551Z,102371.69
2018-12-18T08:38:45.859Z,102367.77
2018-12-18T08:41:14.440Z,102362.94
2018-12-18T08:43:42.779Z,102362.94
2018-12-18T08:46:11.153Z,102364.70
2018-12-18T08:48:39.526Z,102369.53
2018-12-18T08:51:07.841Z,102362.98
2018-12-18T08:53:36.172Z,102358.16
2018-12-18T08:56:04.515Z,102356.43
2018-12-18T08:58:32.916Z,102363.41
2018-12-18T09:01:01.310Z,102359.03
2018-12-18T09:03:29.692Z,102359.91
2018-12-18T09:05:57.972Z,102356.43
2018-12-18T09:08:26.452Z,102359.91
2018-12-18T09:10:54.768Z,102362.53
2018-12-18T09:13:23.155Z,102361.66
2018-12-18T09:15:57.125Z,102362.54
2018-12-18T09:18:25.672Z,102350.30
2018-12-18T09:20:53.271Z,102342.86
2018-12-18T09:23:20.847Z,102336.30
2018-12-18T09:25:48.411Z,102331.48
2018-12-18T09:28:16.000Z,102341.55
2018-12-18T09:30:43.639Z,102342.02
2018-12-18T09:33:11.203Z,102344.19
2018-12-18T09:35:38.868Z,102350.75
2018-12-18T09:38:12.019Z,102345.08
2018-12-18T09:40:45.238Z,102338.08
2018-12-18T09:43:18.396Z,102339.81
2018-12-18T09:45:46.000Z,102335.45
2018-12-18T09:48:13.586Z,102329.31
2018-12-18T09:50:41.123Z,102320.56
2018-12-18T09:53:08.883Z,102314.47
2018-12-18T09:55:36.451Z,102308.77
2018-12-18T09:58:08.587Z,102308.34
2018-12-18T10:00:36.191Z,102306.16
2018-12-18T10:03:03.822Z,102305.28
2018-12-18T10:05:31.426Z,102308.34
2018-12-18T10:07:59.042Z,102300.47
2018-12-18T10:10:26.625Z,102294.33
2018-12-18T10:12:54.290Z,102297.84
2018-12-18T10:15:21.992Z,102298.70
2018-12-18T10:17:49.576Z,102295.23
2018-12-18T10:20:17.116Z,102294.34
2018-12-18T10:22:44.731Z,102291.27
2018-12-18T10:25:12.355Z,102288.22
2018-12-18T10:27:39.907Z,102286.90
2018-12-18T10:30:07.582Z,102291.27
2018-12-18T10:32:35.214Z,102286.48
2018-12-18T10:35:02.797Z,102288.22
2018-12-18T10:37:30.404Z,102289.53
2018-12-18T10:39:57.966Z,102291.27
2018-12-18T10:42:25.654Z,102281.21
2018-12-18T10:44:53.221Z,102280.78
2018-12-18T10:47:20.821Z,102277.70
2018-12-18T10:49:48.469Z,102273.77
2018-12-18T10:52:16.060Z,102282.95
2018-12-18T10:54:43.672Z,102277.28
2018-12-18T10:57:11.293Z,102273.34
2018-12-18T10:59:39.019Z,102269.41
2018-12-18T11:02:06.600Z,102264.59
2018-12-18T11:04:34.222Z,102260.20
2018-12-18T11:07:01.801Z,102252.34
2018-12-18T11:09:29.492Z,102250.56
2018-12-18T11:11:57.081Z,102242.27
2018-12-18T11:14:24.694Z,102247.09
2018-12-18T11:16:52.312Z,102242.27
2018-12-18T11:19:19.922Z,102245.34
2018-12-18T11:21:47.531Z,102241.41
2018-12-18T11:24:15.112Z,102236.16
2018-12-18T11:26:42.743Z,102227.86
2018-12-18T11:29:10.346Z,102226.55
2018-12-18T11:31:37.949Z,102222.60
2018-12-18T11:34:05.581Z,102228.27
2018-12-18T11:36:33.175Z,102223.03
2018-12-18T11:39:00.767Z,102222.60
2018-12-18T11:41:28.361Z,102226.97
2018-12-18T11:43:55.967Z,102221.29
2018-12-18T11:46:23.527Z,102216.04
2018-12-18T11:48:51.179Z,102215.62
2018-12-18T11:51:18.734Z,102211.65
2018-12-18T11:53:46.376Z,102219.55
2018-12-18T11:56:14.149Z,102221.30
2018-12-18T11:58:41.873Z,102219.09
2018-12-18T12:01:09.903Z,102219.52
2018-12-18T12:03:37.600Z,102220.41
2018-12-18T12:06:05.337Z,102219.09
2018-12-18T12:08:33.192Z,102218.67
2018-12-18T12:11:00.751Z,102214.27
2018-12-18T12:13:28.317Z,102211.65
2018-12-18T12:15:55.956Z,102209.03
2018-12-18T12:18:23.547Z,102201.16
2018-12-18T12:20:51.129Z,102200.73
2018-12-18T12:23:19.061Z,102208.57
2018-12-18T12:25:46.669Z,102207.26
2018-12-18T12:28:14.287Z,102205.52
2018-12-18T12:30:42.628Z,102205.06
2018-12-18T12:33:11.047Z,102201.16
2018-12-18T12:35:39.374Z,102201.16
2018-12-18T12:38:07.803Z,102210.34
2018-12-18T12:40:36.328Z,102210.77
2018-12-18T12:43:04.586Z,102205.55
2018-12-18T12:45:32.962Z,102202.47
2018-12-18T12:48:03.430Z,102197.22
2018-12-18T12:50:32.509Z,102195.02
2018-12-18T12:53:01.752Z,102180.59
2018-12-18T12:55:30.745Z,102184.52
2018-12-18T12:57:59.678Z,102186.27
2018-12-18T13:00:28.768Z,102184.06
2018-12-18T13:02:57.737Z,102176.65
2018-12-18T13:05:26.633Z,102174.02
2018-12-18T13:07:56.293Z,102175.34
2018-12-18T13:10:25.678Z,102169.23
2018-12-18T13:12:54.835Z,102165.30
2018-12-18T13:15:24.025Z,102172.29
2018-12-18T13:17:53.047Z,102164.41
2018-12-18T13:20:22.026Z,102162.22
2018-12-18T13:22:51.047Z,102156.11
2018-12-18T13:25:20.061Z,102147.35
2018-12-18T13:27:49.053Z,102143.42
2018-12-18T13:30:18.169Z,102135.97
2018-12-18T13:32:47.190Z,102145.16
2018-12-18T13:35:16.331Z,102153.03
2018-12-18T13:37:45.283Z,102151.72
2018-12-18T13:40:14.232Z,102149.55
2018-12-18T13:42:43.415Z,102145.62
2018-12-18T13:45:12.435Z,102142.56
2018-12-18T13:47:41.394Z,102144.30
2018-12-18T13:50:10.569Z,102140.37
2018-12-18T13:52:38.179Z,102140.41
2018-12-18T13:55:05.747Z,102145.62
2018-12-18T13:57:33.342Z,102140.83
2018-12-18T14:00:00.929Z,102140.83
2018-12-18T14:02:28.517Z,102136.89
2018-12-18T14:04:56.123Z,102139.95
2018-12-18T14:07:23.729Z,102129.88
2018-12-18T14:09:51.578Z,102133.38
2018-12-18T14:12:19.325Z,102131.64
2018-12-18T14:14:46.905Z,102129.02
2018-12-18T14:17:14.466Z,102131.19
2018-12-18T14:19:42.094Z,102130.33
2018-12-18T14:22:09.663Z,102124.20
2018-12-18T14:24:37.382Z,102120.27
2018-12-18T14:27:04.984Z,102118.06
2018-12-18T14:29:32.563Z,102115.44
2018-12-18T14:32:00.221Z,102127.25
2018-12-18T14:34:27.775Z,102120.69
2018-12-18T14:36:56.362Z,102112.81
2018-12-18T14:39:24.256Z,102118.52
2018-12-18T14:41:51.903Z,102115.02
2018-12-18T14:44:19.561Z,102115.47
2018-12-18T14:46:47.109Z,102115.47
2018-12-18T14:49:14.813Z,102110.23
2018-12-18T14:51:42.388Z,102105.44
2018-12-18T14:54:10.187Z,102097.14
2018-12-18T14:56:37.754Z,102101.08
2018-12-18T14:59:05.397Z,102105.02
2018-12-18T15:01:32.945Z,102098.88
2018-12-18T15:04:00.531Z,102099.31
2018-12-18T15:06:28.095Z,102093.64
2018-12-18T15:08:55.640Z,102094.95
2018-12-18T15:11:23.213Z,102103.24
2018-12-18T15:13:50.752Z,102093.64
2018-12-18T15:16:18.475Z,102094.95
2018-12-18T15:18:46.059Z,102095.41
2018-12-18T15:21:13.660Z,102099.34
2018-12-18T15:23:41.253Z,102096.26
2018-12-18T15:26:08.817Z,102087.50
2018-12-18T15:28:36.462Z,102082.25
2018-12-18T15:31:04.039Z,102082.72
2018-12-18T15:33:31.605Z,102080.95
2018-12-18T15:35:59.630Z,102090.13
2018-12-18T15:38:27.253Z,102093.20
2018-12-18T15:40:54.848Z,102098.00
2018-12-18T15:43:22.512Z,102096.72
2018-12-18T15:45:50.111Z,102090.16
2018-12-18T15:48:17.720Z,102098.45
2018-12-18T15:50:45.423Z,102089.73
2018-12-18T15:53:13.000Z,102101.08
2018-12-18T15:55:40.584Z,102105.44
2018-12-18T15:58:08.157Z,102107.64
2018-12-18T16:00:35.776Z,102108.06
2018-12-18T16:03:03.445Z,102107.67
2018-12-18T16:05:31.012Z,102111.17
2018-12-18T16:07:58.606Z,102108.55
2018-12-18T16:10:26.300Z,102103.73
2018-12-18T16:12:53.930Z,102100.23
2018-12-18T16:15:21.539Z,102101.11
2018-12-18T16:17:49.263Z,102101.53
2018-12-18T16:20:16.821Z,102101.53
2018-12-18T16:22:44.368Z,102105.50
2018-12-18T16:25:13.852Z,102101.11
2018-12-18T16:27:44.530Z,102093.70
2018-12-18T16:30:13.920Z,102093.70
2018-12-18T16:32:43.006Z,102085.38
2018-12-18T16:35:12.113Z,102086.69
2018-12-18T16:37:41.376Z,102090.62
2018-12-18T16:40:08.997Z,102091.93
2018-12-18T16:42:36.765Z,102081.02
2018-12-18T16:45:04.891Z,102086.72
2018-12-18T16:47:32.472Z,102082.33
2018-12-18T16:50:00.106Z,102078.84
2018-12-18T16:52:27.664Z,102073.17
2018-12-18T16:54:55.258Z,102065.31
2018-12-18T16:57:22.823Z,102060.48
2018-12-18T16:59:50.356Z,102060.48
2018-12-18T17:02:18.141Z,102062.69
2018-12-18T17:04:45.724Z,102060.06
2018-12-18T17:07:13.331Z,102063.11
2018-12-18T17:09:41.039Z,102061.34
2018-12-18T17:12:09.390Z,102050.85
2018-12-18T17:14:37.041Z,102049.54
2018-12-18T17:17:04.741Z,102051.70
2018-12-18T17:19:46.548Z,102048.23
2018-12-18T17:22:14.938Z,102050.39
2018-12-18T17:24:51.225Z,102052.16
2018-12-18T17:27:20.149Z,102049.08
2018-12-18T17:29:50.232Z,102059.57
2018-12-18T17:32:17.953Z,102062.66
2018-12-18T17:34:45.636Z,102063.53
2018-12-18T17:37:13.266Z,102063.53
2018-12-18T17:39:40.895Z,102074.88
2018-12-18T17:42:08.587Z,102069.64
2018-12-18T17:44:36.294Z,102071.83
2018-12-18T17:47:04.002Z,102061.77
2018-12-18T17:49:31.537Z,102057.83
2018-12-18T17:51:59.126Z,102057.37
2018-12-18T17:54:26.792Z,102052.59
2018-12-18T17:56:54.450Z,102065.70
2018-12-18T17:59:22.041Z,102066.12
2018-12-18T18:01:49.618Z,102064.81
2018-12-18T18:04:17.263Z,102067.44
2018-12-18T18:06:44.987Z,102068.75
2018-12-18T18:09:12.588Z,102060.03
2018-12-18T18:11:40.159Z,102056.52
2018-12-18T18:14:07.757Z,102063.97
2018-12-18T18:16:35.373Z,102052.16
2018-12-18T18:19:03.134Z,102041.67
2018-12-18T18:21:30.727Z,102039.05
2018-12-18T18:23:58.343Z,102031.64
2018-12-18T18:26:27.739Z,102031.22
2018-12-18T18:28:56.726Z,102025.55
2018-12-18T18:31:25.762Z,102018.56
2018-12-18T18:33:54.711Z,102011.55
2018-12-18T18:36:23.721Z,102008.97
2018-12-18T18:38:52.646Z,102004.61
2018-12-18T18:41:21.691Z,101993.23
2018-12-18T18:43:50.688Z,101985.36
2018-12-18T18:46:19.840Z,101982.31
2018-12-18T18:48:48.802Z,101979.70
2018-12-18T18:51:17.755Z,101974.88
2018-12-18T18:53:46.771Z,101964.81
2018-12-18T18:56:14.502Z,101962.23
2018-12-18T18:58:42.035Z,101960.92
2018-12-18T19:01:09.620Z,101959.15
2018-12-18T19:03:37.244Z,101953.02
2018-12-18T19:06:04.792Z,101950.44
2018-12-18T19:08:32.594Z,101943.42
2018-12-18T19:11:00.180Z,101944.30
2018-12-18T19:13:29.444Z,101941.26
2018-12-18T19:15:58.625Z,101941.22
2018-12-18T19:18:27.640Z,101938.17
2018-12-18T19:20:56.654Z,101933.77
2018-12-18T19:23:25.733Z,101928.99
2018-12-18T19:25:54.775Z,101925.49
2018-12-18T19:28:24.041Z,101921.59
2018-12-18T19:30:53.173Z,101921.59
2018-12-18T19:33:22.371Z,101915.45
2018-12-18T19:35:51.543Z,101903.19
2018-12-18T19:38:20.781Z,101898.78
2018-12-18T19:40:50.390Z,101890.87
2018-12-18T19:43:19.718Z,101879.53
2018-12-18T19:45:48.519Z,101875.13
2018-12-18T19:48:18.410Z,101879.48
2018-12-18T19:50:47.599Z,101874.25
2018-12-18T19:53:17.133Z,101872.55
2018-12-18T19:55:45.950Z,101876.50
2018-12-18T19:58:14.920Z,101872.55
2018-12-18T20:00:43.960Z,101865.59
2018-12-18T20:03:11.626Z,101860.75
2018-12-18T20:05:39.248Z,101857.67
2018-12-18T20:08:10.029Z,101858.13
2018-12-18T20:10:36.523Z,101849.81
2018-12-18T20:13:05.125Z,101852.43
2018-12-18T20:15:32.846Z,101852.42
2018-12-18T20:18:00.519Z,101852.44
2018-12-18T20:20:28.110Z,101859.45
2018-12-18T20:22:55.772Z,101861.65
2018-12-18T20:25:23.333Z,101852.02
2018-12-18T20:27:50.916Z,101845.50
2018-12-18T20:30:18.556Z,101856.84
2018-12-18T20:32:46.280Z,101851.59
2018-12-18T20:35:15.042Z,101845.51
2018-12-18T20:37:42.683Z,101852.06
2018-12-18T20:40:11.684Z,101846.36
2018-12-18T20:42:40.306Z,101844.63
2018-12-18T20:45:09.426Z,101842.88
2018-12-18T20:47:37.902Z,101831.08
2018-12-18T20:50:07.033Z,101826.26
2018-12-18T20:52:35.430Z,101824.52
2018-12-18T20:55:04.632Z,101816.67
2018-12-18T20:57:32.888Z,101813.63
2018-12-18T21:00:01.506Z,101805.36
2018-12-18T21:02:29.796Z,101799.23
2018-12-18T21:04:58.516Z,101792.72
2018-12-18T21:07:26.298Z,101796.61
2018-12-18T21:09:54.662Z,101791.41
2018-12-18T21:12:23.241Z,101790.52
2018-12-18T21:14:50.934Z,101796.62
2018-12-18T21:17:19.079Z,101792.69
2018-12-18T21:19:46.712Z,101792.69
2018-12-18T21:22:15.509Z,101790.95
2018-12-18T21:24:43.984Z,101784.36
2018-12-18T21:27:11.645Z,101780.46
2018-12-18T21:29:39.356Z,101794.43
2018-12-18T21:32:07.850Z,101795.73
2018-12-18T21:34:36.340Z,101793.56
2018-12-18T21:37:04.535Z,101796.64
2018-12-18T21:39:33.319Z,101799.23
2018-12-18T21:42:01.161Z,101796.64
2018-12-18T21:44:30.284Z,101789.20
2018-12-18T21:46:58.622Z,101784.39
2018-12-18T21:49:27.611Z,101783.08
2018-12-18T21:51:55.589Z,101786.13
2018-12-18T21:54:24.009Z,101782.66
2018-12-18T21:56:52.180Z,101779.61
2018-12-18T21:59:21.435Z,101785.70
2018-12-18T22:01:50.918Z,101792.24
2018-12-18T22:04:19.295Z,101786.16
2018-12-18T22:06:48.048Z,101783.97
2018-12-18T22:29:24.907Z,101753.36
2018-12-18T22:31:52.714Z,101754.67
2018-12-18T22:34:20.400Z,101746.81
2018-12-18T22:36:48.858Z,101741.57
2018-12-18T22:47:54.749Z,101714.89
2018-12-18T22:50:23.373Z,101710.11
2018-12-18T22:52:50.954Z,101703.55
2018-12-18T22:55:18.589Z,101694.37
2018-12-18T22:57:46.229Z,101687.37
2018-12-18T23:00:18.477Z,101676.48
2018-12-18T23:02:47.169Z,101667.28
2018-12-18T23:05:14.788Z,101658.12
2018-12-18T23:07:42.426Z,101646.31
2018-12-18T23:10:10.010Z,101637.14
2018-12-18T23:12:37.617Z,101631.50
2018-12-18T23:15:05.526Z,101625.30
2018-12-18T23:17:39.027Z,101627.09
2018-12-18T23:20:16.395Z,101624.48
2018-12-18T23:22:44.040Z,101621.44
2018-12-18T23:25:12.055Z,101620.53
2018-12-18T23:27:41.031Z,101616.59
2018-12-18T23:30:08.789Z,101612.73
2018-12-18T23:32:36.486Z,101606.19
2018-12-18T23:35:04.150Z,101595.31
2018-12-18T23:37:32.514Z,101597.08
2018-12-18T23:40:00.824Z,101590.97
2018-12-18T23:42:29.220Z,101584.88
2018-12-18T23:44:57.501Z,101578.75
2018-12-18T23:49:53.634Z,101571.29
2018-12-18T23:52:21.587Z,101569.98
2018-12-18T23:54:49.277Z,101566.45
2018-12-18T23:57:17.154Z,101555.95
2018-12-18T23:59:44.810Z,101546.78
